createdAt,value
2023-04-17T00:01:13.972Z,43.17
2023-04-17T00:03:41.071Z,41.88
2023-04-17T00:06:08.153Z,38.05
2023-04-17T00:08:35.296Z,34.78
2023-04-17T00:11:07.730Z,40.10
2023-04-17T00:13:36.399Z,47.58
2023-04-17T00:16:03.476Z,51.65
2023-04-17T00:18:30.524Z,46.08
2023-04-17T00:20:57.365Z,39.63
2023-04-17T00:23:25.675Z,37.75
2023-04-17T00:25:52.534Z,39.20
2023-04-17T00:28:19.494Z,46.28
2023-04-17T00:30:46.948Z,41.13
2023-04-17T00:33:13.879Z,43.65
2023-04-17T00:35:40.802Z,47.28
2023-04-17T00:38:09.206Z,38.08
2023-04-17T00:40:36.602Z,41.28
2023-04-17T00:43:04.602Z,45.00
2023-04-17T00:45:31.591Z,44.45
2023-04-17T00:48:00.052Z,44.67
2023-04-17T00:50:31.120Z,60.97
2023-04-17T00:52:58.483Z,42.83
2023-04-17T00:55:26.532Z,39.10
2023-04-17T00:57:53.729Z,58.75
2023-04-17T01:00:20.804Z,46.17
2023-04-17T01:02:48.337Z,41.47
2023-04-17T01:05:15.296Z,45.70
2023-04-17T01:07:43.856Z,43.40
2023-04-17T01:10:10.937Z,42.35
2023-04-17T01:12:37.826Z,41.83
2023-04-17T01:15:05.314Z,45.08
2023-04-17T01:17:32.377Z,46.85
2023-04-17T01:19:59.379Z,49.03
2023-04-17T01:22:26.234Z,48.78
2023-04-17T01:24:53.077Z,43.22
2023-04-17T01:27:22.635Z,43.47
2023-04-17T01:29:49.625Z,56.30
2023-04-17T01:32:17.800Z,45.70
2023-04-17T01:34:45.284Z,43.45
2023-04-17T01:37:12.123Z,43.53
2023-04-17T01:39:38.977Z,47.70
2023-04-17T01:42:06.170Z,51.72
2023-04-17T01:44:33.052Z,48.28
2023-04-17T01:46:59.907Z,39.22
2023-04-17T01:49:26.883Z,40.30
2023-04-17T01:51:53.756Z,44.72
2023-04-17T01:54:21.234Z,42.40
2023-04-17T01:56:48.114Z,45.50
2023-04-17T01:59:14.977Z,44.92
2023-04-17T02:01:41.963Z,45.28
2023-04-17T02:04:09.148Z,38.63
2023-04-17T02:06:36.521Z,44.58
2023-04-17T02:09:03.945Z,46.50
2023-04-17T02:11:30.874Z,41.78
2023-04-17T02:13:57.837Z,41.55
2023-04-17T02:16:24.859Z,42.40
2023-04-17T02:18:52.336Z,37.53
2023-04-17T02:21:19.152Z,35.60
2023-04-17T02:23:45.976Z,38.03
2023-04-17T02:26:12.838Z,38.40
2023-04-17T02:28:40.052Z,42.30
2023-04-17T02:31:11.135Z,46.22
2023-04-17T02:33:38.775Z,33.67
2023-04-17T02:36:08.924Z,43.28
2023-04-17T02:38:37.687Z,39.88
2023-04-17T02:41:05.425Z,36.10
2023-04-17T02:43:32.422Z,38.70
2023-04-17T02:45:59.325Z,36.92
2023-04-17T02:48:26.141Z,40.53
2023-04-17T02:50:52.972Z,41.42
2023-04-17T02:53:19.938Z,44.25
2023-04-17T02:55:46.828Z,41.20
2023-04-17T02:58:13.710Z,40.63
2023-04-17T03:00:40.931Z,35.50
2023-04-17T03:03:08.258Z,45.22
2023-04-17T03:05:35.930Z,38.50
2023-04-17T03:08:03.346Z,41.70
2023-04-17T03:10:30.205Z,36.17
2023-04-17T03:12:57.060Z,42.38
2023-04-17T03:15:23.901Z,34.15
2023-04-17T03:17:50.811Z,39.78
2023-04-17T03:20:17.992Z,31.55
2023-04-17T03:22:44.843Z,52.03
2023-04-17T03:25:11.703Z,50.65
2023-04-17T03:27:38.866Z,50.05
2023-04-17T03:30:06.414Z,52.17
2023-04-17T03:32:33.402Z,50.25
2023-04-17T03:35:00.522Z,49.90
2023-04-17T03:37:27.435Z,45.55
2023-04-17T03:39:55.653Z,48.92
2023-04-17T03:42:22.541Z,41.65
2023-04-17T03:44:49.346Z,37.65
2023-04-17T03:47:16.153Z,40.00
2023-04-17T03:49:43.018Z,43.80
2023-04-17T03:52:09.816Z,40.20
2023-04-17T03:54:36.765Z,46.60
2023-04-17T03:57:04.176Z,39.17
2023-04-17T03:59:32.086Z,70.72
2023-04-17T04:01:59.232Z,53.90
2023-04-17T04:04:26.371Z,47.05
2023-04-17T04:06:57.499Z,52.33
2023-04-17T04:09:27.523Z,47.20
2023-04-17T04:11:54.481Z,48.42
2023-04-17T04:14:21.430Z,52.17
2023-04-17T04:16:48.548Z,51.03
2023-04-17T04:19:15.418Z,53.17
2023-04-17T04:21:43.501Z,46.40
2023-04-17T04:24:13.289Z,48.28
2023-04-17T04:26:43.466Z,53.53
2023-04-17T04:29:11.901Z,45.65
2023-04-17T04:31:39.648Z,52.55
2023-04-17T04:34:07.835Z,53.20
2023-04-17T04:36:41.816Z,49.58
2023-04-17T04:39:08.731Z,65.05
2023-04-17T04:41:35.645Z,44.40
2023-04-17T04:44:02.531Z,45.75
2023-04-17T04:46:29.402Z,48.20
2023-04-17T04:48:56.268Z,51.28
2023-04-17T04:51:23.109Z,48.78
2023-04-17T04:53:49.973Z,43.67
2023-04-17T04:56:16.774Z,57.95
2023-04-17T04:58:43.712Z,49.47
2023-04-17T05:01:10.816Z,48.30
2023-04-17T05:03:38.387Z,44.53
2023-04-17T05:06:09.426Z,41.72
2023-04-17T05:08:36.349Z,43.08
2023-04-17T05:11:03.850Z,46.63
2023-04-17T05:13:30.668Z,42.70
2023-04-17T05:15:59.598Z,51.45
2023-04-17T05:18:27.778Z,44.45
2023-04-17T05:20:54.661Z,47.90
2023-04-17T05:23:22.863Z,44.28
2023-04-17T05:25:49.774Z,39.42
2023-04-17T05:28:17.088Z,44.58
2023-04-17T05:30:44.893Z,48.15
2023-04-17T05:33:11.837Z,45.15
2023-04-17T05:35:38.698Z,46.40
2023-04-17T05:38:08.205Z,47.33
2023-04-17T05:40:35.217Z,48.28
2023-04-17T05:43:10.048Z,57.78
2023-04-17T05:48:04.626Z,42.22
2023-04-17T05:50:31.600Z,50.60
2023-04-17T05:52:58.625Z,47.63
2023-04-17T05:55:26.036Z,41.22
2023-04-17T05:57:52.991Z,38.13
2023-04-17T06:00:22.568Z,53.45
2023-04-17T06:02:49.979Z,51.20
2023-04-17T06:05:21.309Z,51.25
2023-04-17T06:07:48.280Z,46.63
2023-04-17T06:10:15.602Z,49.05
2023-04-17T06:12:42.712Z,52.53
2023-04-17T06:15:09.944Z,52.30
2023-04-17T06:17:37.846Z,50.00
2023-04-17T06:20:09.905Z,45.47
2023-04-17T06:22:37.732Z,63.95
2023-04-17T06:25:04.989Z,49.22
2023-04-17T06:27:31.866Z,53.40
2023-04-17T06:29:58.774Z,41.85
2023-04-17T06:32:25.790Z,47.33
2023-04-17T06:34:59.216Z,51.17
2023-04-17T06:37:26.696Z,44.90
2023-04-17T06:39:53.652Z,43.13
2023-04-17T06:42:20.625Z,45.90
2023-04-17T06:44:47.557Z,43.42
2023-04-17T06:47:15.983Z,45.05
2023-04-17T06:49:42.835Z,40.80
2023-04-17T06:52:09.690Z,39.53
2023-04-17T06:54:36.686Z,41.50
2023-04-17T06:57:06.196Z,43.28
2023-04-17T06:59:34.224Z,52.20
2023-04-17T07:02:05.171Z,52.17
2023-04-17T07:04:32.094Z,49.45
2023-04-17T07:06:59.046Z,49.10
2023-04-17T07:09:26.426Z,48.15
2023-04-17T07:11:53.743Z,63.95
2023-04-17T07:14:20.635Z,47.95
2023-04-17T07:16:47.544Z,47.25
2023-04-17T07:19:14.875Z,50.35
2023-04-17T07:21:41.788Z,42.47
2023-04-17T07:24:08.870Z,56.38
2023-04-17T07:26:37.024Z,50.95
2023-04-17T07:29:03.950Z,51.50
2023-04-17T07:31:31.242Z,40.17
2023-04-17T07:33:58.143Z,55.83
2023-04-17T07:36:25.187Z,40.97
2023-04-17T07:38:51.957Z,41.78
2023-04-17T07:41:18.790Z,41.92
2023-04-17T07:43:45.572Z,40.28
2023-04-17T07:46:12.543Z,43.00
2023-04-17T07:48:40.229Z,36.00
2023-04-17T07:51:07.803Z,38.33
2023-04-17T07:53:38.608Z,37.88
2023-04-17T07:56:06.506Z,36.15
2023-04-17T07:58:35.757Z,38.17
2023-04-17T08:01:06.242Z,36.08
2023-04-17T08:03:33.602Z,44.03
2023-04-17T08:06:00.741Z,36.50
2023-04-17T08:08:27.745Z,34.72
2023-04-17T08:10:54.642Z,41.00
2023-04-17T08:13:21.457Z,35.88
2023-04-17T08:15:48.369Z,46.90
2023-04-17T08:18:15.323Z,44.55
2023-04-17T08:20:42.903Z,38.50
2023-04-17T08:23:09.999Z,34.28
2023-04-17T08:25:36.839Z,44.22
2023-04-17T08:28:03.702Z,33.78
2023-04-17T08:30:30.795Z,35.78
2023-04-17T08:32:57.888Z,37.42
2023-04-17T08:35:25.464Z,35.53
2023-04-17T08:37:52.568Z,40.03
2023-04-17T08:40:23.179Z,30.10
2023-04-17T08:42:53.119Z,34.50
2023-04-17T08:45:23.996Z,29.83
2023-04-17T08:47:51.145Z,30.92
2023-04-17T08:50:19.996Z,35.03
2023-04-17T08:52:49.279Z,27.55
2023-04-17T08:55:22.392Z,32.63
2023-04-17T08:58:09.204Z,26.15
2023-04-17T09:00:37.853Z,26.83
2023-04-17T09:03:11.151Z,30.17
2023-04-17T09:05:41.885Z,29.33
2023-04-17T09:08:17.911Z,28.55
2023-04-17T09:10:50.356Z,22.52
2023-04-17T09:13:19.523Z,24.13
2023-04-17T09:15:48.130Z,22.08
2023-04-17T09:18:25.304Z,20.42
2023-04-17T09:20:52.459Z,24.65
2023-04-17T09:23:19.912Z,16.80
2023-04-17T09:25:46.962Z,28.85
2023-04-17T09:28:15.601Z,22.33
2023-04-17T09:30:43.166Z,21.67
2023-04-17T09:33:11.961Z,21.23
2023-04-17T09:35:39.961Z,19.48
2023-04-17T09:38:07.526Z,18.80
2023-04-17T09:40:39.682Z,18.17
2023-04-17T09:43:09.929Z,15.82
2023-04-17T09:45:41.615Z,13.25
2023-04-17T09:48:11.483Z,16.88
2023-04-17T09:50:41.704Z,16.70
2023-04-17T09:53:08.992Z,14.48
2023-04-17T09:55:38.188Z,15.13
2023-04-17T09:58:07.434Z,17.40
2023-04-17T10:00:36.615Z,14.40
2023-04-17T10:03:03.948Z,13.13
2023-04-17T10:05:32.436Z,13.85
2023-04-17T10:07:59.805Z,11.73
2023-04-17T10:10:34.872Z,13.50
2023-04-17T10:13:06.130Z,10.05
2023-04-17T10:15:34.094Z,11.60
2023-04-17T10:18:21.296Z,11.18
2023-04-17T10:20:49.802Z,8.13
2023-04-17T10:23:35.604Z,10.60
2023-04-17T10:26:27.148Z,10.55
2023-04-17T10:28:56.000Z,9.32
2023-04-17T10:31:23.653Z,9.88
2023-04-17T10:33:57.122Z,9.10
2023-04-17T10:36:39.286Z,8.13
2023-04-17T10:39:18.713Z,12.27
2023-04-17T10:42:06.097Z,10.25
2023-04-17T10:44:39.645Z,8.20
2023-04-17T10:50:00.056Z,10.68
2023-04-17T10:52:33.301Z,6.95
2023-04-17T10:55:10.483Z,6.05
2023-04-17T10:58:12.996Z,8.02
2023-04-17T11:00:52.376Z,9.90
2023-04-17T11:03:23.147Z,6.25
2023-04-17T11:05:52.153Z,9.48
2023-04-17T11:08:19.082Z,7.30
2023-04-17T11:10:45.968Z,7.80
2023-04-17T11:13:12.847Z,7.47
2023-04-17T11:15:39.728Z,8.10
2023-04-17T11:18:07.139Z,11.40
2023-04-17T11:20:37.088Z,7.97
2023-04-17T11:23:06.002Z,7.88
2023-04-17T11:25:34.572Z,6.80
2023-04-17T11:28:06.559Z,9.43
2023-04-17T11:30:36.688Z,8.60
2023-04-17T11:33:05.748Z,6.82
2023-04-17T11:35:34.761Z,11.10
2023-04-17T11:38:27.971Z,11.23
2023-04-17T11:40:58.891Z,6.03
2023-04-17T11:43:26.685Z,7.82
2023-04-17T11:45:58.751Z,9.15
2023-04-17T11:48:27.899Z,5.22
2023-04-17T11:51:05.626Z,8.13
2023-04-17T11:53:35.776Z,13.95
2023-04-17T11:56:19.708Z,14.15
2023-04-17T11:58:53.389Z,11.05
2023-04-17T12:01:24.603Z,10.63
2023-04-17T12:03:53.132Z,8.25
2023-04-17T12:06:20.281Z,12.05
2023-04-17T12:08:53.391Z,11.88
2023-04-17T12:11:27.356Z,9.25
2023-04-17T12:13:55.804Z,13.50
2023-04-17T12:16:26.667Z,10.10
2023-04-17T12:18:54.487Z,12.25
2023-04-17T12:21:22.122Z,8.88
2023-04-17T12:23:49.052Z,10.35
2023-04-17T12:26:16.204Z,10.70
2023-04-17T12:28:43.186Z,16.13
2023-04-17T12:31:10.213Z,11.73
2023-04-17T12:33:37.140Z,9.82
2023-04-17T12:36:05.268Z,9.57
2023-04-17T12:38:32.178Z,11.18
2023-04-17T12:41:00.294Z,11.73
2023-04-17T12:43:27.148Z,12.07
2023-04-17T12:45:54.075Z,10.15
2023-04-17T12:48:20.959Z,13.23
2023-04-17T12:50:47.911Z,10.25
2023-04-17T12:53:16.282Z,7.55
2023-04-17T12:55:44.504Z,8.57
2023-04-17T12:58:12.998Z,8.18
2023-04-17T13:00:43.468Z,9.38
2023-04-17T13:03:11.920Z,8.45
2023-04-17T13:05:39.559Z,8.55
2023-04-17T13:08:06.544Z,6.18
2023-04-17T13:10:34.325Z,9.48
2023-04-17T13:13:02.335Z,6.05
2023-04-17T13:15:29.194Z,5.05
2023-04-17T13:17:56.227Z,6.20
2023-04-17T13:20:23.167Z,6.55
2023-04-17T13:22:50.783Z,7.60
2023-04-17T13:25:17.847Z,7.20
2023-04-17T13:27:44.715Z,6.20
2023-04-17T13:30:11.900Z,11.77
2023-04-17T13:32:40.402Z,9.27
2023-04-17T13:35:09.701Z,10.18
2023-04-17T13:37:36.830Z,7.32
2023-04-17T13:40:05.586Z,9.57
2023-04-17T13:42:32.618Z,7.53
2023-04-17T13:44:59.657Z,7.65
2023-04-17T13:47:26.515Z,6.55
2023-04-17T13:49:53.458Z,7.28
2023-04-17T13:52:21.009Z,10.65
2023-04-17T13:54:48.482Z,5.78
2023-04-17T13:57:18.432Z,6.55
2023-04-17T13:59:45.460Z,5.97
2023-04-17T14:02:12.415Z,5.30
2023-04-17T14:04:39.559Z,9.68
2023-04-17T14:07:06.766Z,7.10
2023-04-17T14:09:33.602Z,5.80
2023-04-17T14:12:00.488Z,6.80
2023-04-17T14:14:29.844Z,4.97
2023-04-17T14:16:56.946Z,5.70
2023-04-17T14:19:24.311Z,5.40
2023-04-17T14:21:51.117Z,7.88
2023-04-17T14:24:18.124Z,7.53
2023-04-17T14:26:45.028Z,6.00
2023-04-17T14:29:14.311Z,7.55
2023-04-17T14:31:41.545Z,6.45
2023-04-17T14:34:08.659Z,5.88
2023-04-17T14:36:35.884Z,5.70
2023-04-17T14:39:03.173Z,8.02
2023-04-17T14:41:33.930Z,5.93
2023-04-17T14:44:01.184Z,6.78
2023-04-17T14:46:28.225Z,6.10
2023-04-17T14:49:10.168Z,8.07
2023-04-17T14:51:40.093Z,8.77
2023-04-17T14:54:06.954Z,6.05
2023-04-17T14:56:34.146Z,5.88
2023-04-17T14:59:01.595Z,12.20
2023-04-17T15:01:28.643Z,5.55
2023-04-17T15:03:55.846Z,5.25
2023-04-17T15:06:22.942Z,4.68
2023-04-17T15:08:49.940Z,6.55
2023-04-17T15:11:16.712Z,7.22
2023-04-17T15:13:43.881Z,4.97
2023-04-17T15:16:11.272Z,7.65
2023-04-17T15:18:39.474Z,4.90
2023-04-17T15:21:09.817Z,7.50
2023-04-17T15:23:47.352Z,6.38
2023-04-17T15:26:15.419Z,6.28
2023-04-17T15:28:42.361Z,5.45
2023-04-17T15:31:09.214Z,7.35
2023-04-17T15:33:37.638Z,8.25
2023-04-17T15:36:04.975Z,4.47
2023-04-17T15:38:31.817Z,5.75
2023-04-17T15:40:59.062Z,11.02
2023-04-17T15:43:26.214Z,17.48
2023-04-17T15:45:53.211Z,6.88
2023-04-17T15:48:27.890Z,6.78
2023-04-17T15:50:57.781Z,5.60
2023-04-17T15:53:24.745Z,3.50
2023-04-17T15:55:52.724Z,4.88
2023-04-17T15:58:20.854Z,4.00
2023-04-17T16:00:47.936Z,9.63
2023-04-17T16:03:17.478Z,5.20
2023-04-17T16:05:44.716Z,4.65
2023-04-17T16:08:11.554Z,6.35
2023-04-17T16:10:38.473Z,8.95
2023-04-17T16:13:05.403Z,3.42
2023-04-17T16:15:32.491Z,3.15
2023-04-17T16:17:59.990Z,7.80
2023-04-17T16:20:26.909Z,9.10
2023-04-17T16:22:53.951Z,4.80
2023-04-17T16:25:21.164Z,5.03
2023-04-17T16:27:48.124Z,5.65
2023-04-17T16:30:15.152Z,6.03
2023-04-17T16:32:44.421Z,6.78
2023-04-17T16:35:11.359Z,6.30
2023-04-17T16:37:38.184Z,7.40
2023-04-17T16:40:05.753Z,6.72
2023-04-17T16:42:34.241Z,4.95
2023-04-17T16:45:01.336Z,4.25
2023-04-17T16:47:38.425Z,6.32
2023-04-17T16:50:11.471Z,4.13
2023-04-17T16:52:40.764Z,5.82
2023-04-17T16:55:08.305Z,6.88
2023-04-17T16:57:40.107Z,4.78
2023-04-17T17:00:08.177Z,4.78
2023-04-17T17:02:36.890Z,6.93
2023-04-17T17:05:08.955Z,7.20
2023-04-17T17:07:35.951Z,4.25
2023-04-17T17:10:03.183Z,7.78
2023-04-17T17:12:30.054Z,3.83
2023-04-17T17:15:02.627Z,5.38
2023-04-17T17:17:30.584Z,5.60
2023-04-17T17:19:57.420Z,8.63
2023-04-17T17:22:24.685Z,6.18
2023-04-17T17:24:51.573Z,6.85
2023-04-17T17:27:18.423Z,7.03
2023-04-17T17:29:47.872Z,5.15
2023-04-17T17:32:16.423Z,5.97
2023-04-17T17:34:43.643Z,3.92
2023-04-17T17:37:10.770Z,7.63
2023-04-17T17:39:37.653Z,6.18
2023-04-17T17:42:09.417Z,5.25
2023-04-17T17:44:36.551Z,10.13
2023-04-17T17:47:05.149Z,7.82
2023-04-17T17:49:33.366Z,6.10
2023-04-17T17:52:00.303Z,7.00
2023-04-17T17:54:27.117Z,6.80
2023-04-17T17:56:53.981Z,6.43
2023-04-17T17:59:22.169Z,9.50
2023-04-17T18:01:51.205Z,9.02
2023-04-17T18:04:18.598Z,9.55
2023-04-17T18:06:45.989Z,7.78
2023-04-17T18:09:13.002Z,12.95
2023-04-17T18:11:40.055Z,9.73
2023-04-17T18:14:07.024Z,14.98
2023-04-17T18:16:34.168Z,8.43
2023-04-17T18:19:03.658Z,8.25
2023-04-17T18:21:34.013Z,8.38
2023-04-17T18:24:01.882Z,8.88
2023-04-17T18:26:29.038Z,11.95
2023-04-17T18:28:55.943Z,11.57
2023-04-17T18:31:24.711Z,8.75
2023-04-17T18:33:55.725Z,12.93
2023-04-17T18:36:22.578Z,9.50
2023-04-17T18:38:49.363Z,9.15
2023-04-17T18:41:17.306Z,10.55
2023-04-17T18:43:47.296Z,10.82
2023-04-17T18:46:14.189Z,11.18
2023-04-17T18:48:41.038Z,14.18
2023-04-17T18:51:12.559Z,9.27
2023-04-17T18:53:39.470Z,11.82
2023-04-17T18:56:08.432Z,11.20
2023-04-17T18:58:37.823Z,12.25
2023-04-17T19:01:06.470Z,15.52
2023-04-17T19:03:33.511Z,14.23
2023-04-17T19:06:00.545Z,11.40
2023-04-17T19:08:27.506Z,13.82
2023-04-17T19:10:56.784Z,13.00
2023-04-17T19:13:29.810Z,11.00
2023-04-17T19:15:58.886Z,14.45
2023-04-17T19:18:25.854Z,11.73
2023-04-17T19:20:52.768Z,12.88
2023-04-17T19:23:19.635Z,14.05
2023-04-17T19:25:56.315Z,12.35
2023-04-17T19:28:24.302Z,11.77
2023-04-17T19:30:51.187Z,11.32
2023-04-17T19:33:18.908Z,11.45
2023-04-17T19:35:46.176Z,14.15
2023-04-17T19:38:14.890Z,15.20
2023-04-17T19:40:46.818Z,19.00
2023-04-17T19:43:13.685Z,15.27
2023-04-17T19:45:42.289Z,13.82
2023-04-17T19:48:12.413Z,15.68
2023-04-17T19:50:39.251Z,14.55
2023-04-17T19:53:06.062Z,15.52
2023-04-17T19:55:32.974Z,11.13
2023-04-17T19:58:02.400Z,12.95
2023-04-17T20:00:29.471Z,12.13
2023-04-17T20:02:56.576Z,10.07
2023-04-17T20:05:23.601Z,9.93
2023-04-17T20:07:50.652Z,8.88
2023-04-17T20:10:17.549Z,9.40
2023-04-17T20:12:44.661Z,7.72
2023-04-17T20:15:11.745Z,7.90
2023-04-17T20:17:38.855Z,8.05
2023-04-17T20:20:06.742Z,12.30
2023-04-17T20:22:36.566Z,7.65
2023-04-17T20:25:03.626Z,7.85
2023-04-17T20:27:30.444Z,9.63
2023-04-17T20:29:57.350Z,5.78
2023-04-17T20:32:24.512Z,6.28
2023-04-17T20:34:51.397Z,9.48
2023-04-17T20:37:22.472Z,9.18
2023-04-17T20:39:50.727Z,9.77
2023-04-17T20:42:17.674Z,7.38
2023-04-17T20:44:44.595Z,8.35
2023-04-17T20:47:11.564Z,8.73
2023-04-17T20:49:38.488Z,6.72
2023-04-17T20:52:05.411Z,7.15
2023-04-17T20:54:32.322Z,9.00
2023-04-17T20:56:59.150Z,9.93
2023-04-17T20:59:26.052Z,15.50
2023-04-17T21:01:53.061Z,7.05
2023-04-17T21:04:20.167Z,9.32
2023-04-17T21:06:47.076Z,7.25
2023-04-17T21:09:16.457Z,7.85
2023-04-17T21:11:43.473Z,8.32
2023-04-17T21:14:11.477Z,7.80
2023-04-17T21:16:38.602Z,8.38
2023-04-17T21:19:05.534Z,10.52
2023-04-17T21:21:32.349Z,7.93
2023-04-17T21:23:59.214Z,10.82
2023-04-17T21:26:26.166Z,8.15
2023-04-17T21:28:52.969Z,9.05
2023-04-17T21:31:20.037Z,10.68
2023-04-17T21:33:47.175Z,17.20
2023-04-17T21:36:14.584Z,9.52
2023-04-17T21:38:41.454Z,8.27
2023-04-17T21:41:09.141Z,9.00
2023-04-17T21:43:35.955Z,7.93
2023-04-17T21:46:03.864Z,6.55
2023-04-17T21:48:30.746Z,8.82
2023-04-17T21:51:04.925Z,7.53
2023-04-17T21:53:33.782Z,8.10
2023-04-17T21:56:00.746Z,9.65
2023-04-17T21:58:27.875Z,9.57
2023-04-17T22:00:55.402Z,7.80
2023-04-17T22:03:22.500Z,12.93
2023-04-17T22:05:54.072Z,6.22
2023-04-17T22:08:20.893Z,9.05
2023-04-17T22:10:48.033Z,9.27
2023-04-17T22:13:16.076Z,10.23
2023-04-17T22:15:44.005Z,8.23
2023-04-17T22:18:10.849Z,8.75
2023-04-17T22:20:37.678Z,8.82
2023-04-17T22:23:04.581Z,9.27
2023-04-17T22:25:31.464Z,10.10
2023-04-17T22:27:58.252Z,6.57
2023-04-17T22:30:25.324Z,10.25
2023-04-17T22:32:52.294Z,7.35
2023-04-17T22:35:19.165Z,11.60
2023-04-17T22:37:45.974Z,11.20
2023-04-17T22:40:13.560Z,12.50
2023-04-17T22:42:40.510Z,15.90
2023-04-17T22:45:07.733Z,8.23
2023-04-17T22:47:34.778Z,13.10
2023-04-17T22:50:02.543Z,7.43
2023-04-17T22:52:29.487Z,8.55
2023-04-17T22:54:56.355Z,11.93
2023-04-17T22:57:23.303Z,9.30
2023-04-17T22:59:50.206Z,9.45
2023-04-17T23:02:17.211Z,7.13
2023-04-17T23:04:44.206Z,9.70
2023-04-17T23:07:11.050Z,7.70
2023-04-17T23:09:37.878Z,9.98
2023-04-17T23:12:06.203Z,8.02
2023-04-17T23:14:33.273Z,11.75
2023-04-17T23:17:00.154Z,11.35
2023-04-17T23:19:27.250Z,8.85
2023-04-17T23:21:59.606Z,12.55
2023-04-17T23:24:26.679Z,8.95
2023-04-17T23:26:55.108Z,10.98
2023-04-17T23:29:21.958Z,11.30
2023-04-17T23:31:48.822Z,9.13
2023-04-17T23:34:15.951Z,7.97
2023-04-17T23:36:42.898Z,8.23
2023-04-17T23:39:09.743Z,13.38
2023-04-17T23:41:36.610Z,10.60
2023-04-17T23:44:04.296Z,8.98
2023-04-17T23:46:31.243Z,9.10
2023-04-17T23:48:58.122Z,12.30
2023-04-17T23:51:24.980Z,10.00
2023-04-17T23:53:51.793Z,11.10
2023-04-17T23:56:22.061Z,8.30
2023-04-17T23:58:48.929Z,8.35
